Chemstar Masa — 3FGM7 — position and weather

sailwx.info

Track history (hours):
 
Tides and Currents Weather Stations Pressure Air Temp Water Temp Dewpoint Dewpoint Depression Visibility Wind Speed Wind Dir Waves Ship Positions

Chemstar Masa

Last reported at 2015-Apr-11 04:26 UTC. Time now 2015-Apr-28 03:45 UTC.
Position N 38°52' W 072°08'.
Warning: this ship's position is 16 days out of date.

Length 141 m; draft 6.4 m.

Type: Tanker. MMSI: 353456000.

Date/timePositionNaut miles runAvg speedWind from/ knotsBaromVisibWave heightAir tempDewpointWater temp
2015-Apr-11 04:26N 38°52' W 072°08'1413.8
2015-Apr-11 03:25N 39°03' W 072°19'1313.2
2015-Apr-11 02:26N 39°13' W 072°30'1313.2
2015-Apr-11 01:28N 39°23' W 072°40'1314.0
2015-Apr-11 00:34N 39°32' W 072°51'1414.2
2015-Apr-10 23:33N 39°44' W 073°02'1713.7
2015-Apr-10 22:16N 39°57' W 073°17'1810.1
2015-Apr-10 20:28N 40°11' W 073°32'10 8.5
2015-Apr-10 19:20N 40°18' W 073°40'8 8.8
2015-Apr-10 18:29N 40°24' W 073°46'9 9.5
2015-Apr-10 17:33N 40°29' W 073°56'1010.4
2015-Apr-10 16:33N 40°38' W 074°03'2 2.1
2015-Apr-10 15:33N 40°39' W 074°06'0 0.0
2015-Apr-10 14:30N 40°39' W 074°06'0 0.0
2015-Apr-10 13:34N 40°39' W 074°06'0 0.0
2015-Apr-10 12:28N 40°39' W 074°06'0 0.0
2015-Apr-10 11:30N 40°39' W 074°06'0 0.0
2015-Apr-10 10:34N 40°39' W 074°06'0 0.0
2015-Apr-10 09:33N 40°39' W 074°06'0 0.0
2015-Apr-10 08:33N 40°39' W 074°06'0 0.0
2015-Apr-10 07:31N 40°39' W 074°06'0 0.0
2015-Apr-10 06:34N 40°39' W 074°06'0 0.0
2015-Apr-10 05:33N 40°39' W 074°06'0 0.0
2015-Apr-10 04:27N 40°39' W 074°06'0 0.0
2015-Apr-10 03:33N 40°39' W 074°06'0 0.0
2015-Apr-10 02:30N 40°39' W 074°06'0 0.0
2015-Apr-10 01:33N 40°39' W 074°06'0 0.0
2015-Apr-10 00:22N 40°39' W 074°06'0 0.0
2015-Apr-09 23:34N 40°39' W 074°06'0 0.0
2015-Apr-09 22:30N 40°39' W 074°06'2 2.4
2015-Apr-09 21:33N 40°38' W 074°03'9 9.4
2015-Apr-09 20:33N 40°30' W 073°56'8 7.7
2015-Apr-09 19:33N 40°26' W 073°48'6 5.6
2015-Apr-09 18:33N 40°20' W 073°46'10 9.8
2015-Apr-09 17:33N 40°10' W 073°45'1110.8
2015-Apr-09 16:33N 39°60' W 073°43'1110.5
2015-Apr-09 15:33N 39°49' W 073°42'1211.5
2015-Apr-09 14:33N 39°38' W 073°43'1411.9
2015-Apr-09 13:20N 39°24' W 073°50'  
Track history (hours):
 
Tides and Currents Weather Stations Pressure Air Temp Water Temp Dewpoint Dewpoint Depression Visibility Wind Speed Wind Dir Waves Ship Positions

Chemstar Masa

Last reported at 2015-Apr-11 04:26 UTC. Time now 2015-Apr-28 03:45 UTC.
Position N 38°52' W 072°08'.
Warning: this ship's position is 16 days out of date.

Length 141 m; draft 6.4 m.

Type: Tanker. MMSI: 353456000.

Date/timePositionNaut miles runAvg speedWind from/ knotsBaromVisibWave heightAir tempDewpointWater temp
2015-Apr-11 04:26N 38°52' W 072°08'1413.8
2015-Apr-11 03:25N 39°03' W 072°19'1313.2
2015-Apr-11 02:26N 39°13' W 072°30'1313.2
2015-Apr-11 01:28N 39°23' W 072°40'1314.0
2015-Apr-11 00:34N 39°32' W 072°51'1414.2
2015-Apr-10 23:33N 39°44' W 073°02'1713.7
2015-Apr-10 22:16N 39°57' W 073°17'1810.1
2015-Apr-10 20:28N 40°11' W 073°32'10 8.5
2015-Apr-10 19:20N 40°18' W 073°40'8 8.8
2015-Apr-10 18:29N 40°24' W 073°46'9 9.5
2015-Apr-10 17:33N 40°29' W 073°56'1010.4
2015-Apr-10 16:33N 40°38' W 074°03'2 2.1
2015-Apr-10 15:33N 40°39' W 074°06'0 0.0
2015-Apr-10 14:30N 40°39' W 074°06'0 0.0
2015-Apr-10 13:34N 40°39' W 074°06'0 0.0
2015-Apr-10 12:28N 40°39' W 074°06'0 0.0
2015-Apr-10 11:30N 40°39' W 074°06'0 0.0
2015-Apr-10 10:34N 40°39' W 074°06'0 0.0
2015-Apr-10 09:33N 40°39' W 074°06'0 0.0
2015-Apr-10 08:33N 40°39' W 074°06'0 0.0
2015-Apr-10 07:31N 40°39' W 074°06'0 0.0
2015-Apr-10 06:34N 40°39' W 074°06'0 0.0
2015-Apr-10 05:33N 40°39' W 074°06'0 0.0
2015-Apr-10 04:27N 40°39' W 074°06'0 0.0
2015-Apr-10 03:33N 40°39' W 074°06'0 0.0
2015-Apr-10 02:30N 40°39' W 074°06'0 0.0
2015-Apr-10 01:33N 40°39' W 074°06'0 0.0
2015-Apr-10 00:22N 40°39' W 074°06'0 0.0
2015-Apr-09 23:34N 40°39' W 074°06'0 0.0
2015-Apr-09 22:30N 40°39' W 074°06'2 2.4
2015-Apr-09 21:33N 40°38' W 074°03'9 9.4
2015-Apr-09 20:33N 40°30' W 073°56'8 7.7
2015-Apr-09 19:33N 40°26' W 073°48'6 5.6
2015-Apr-09 18:33N 40°20' W 073°46'10 9.8
2015-Apr-09 17:33N 40°10' W 073°45'1110.8
2015-Apr-09 16:33N 39°60' W 073°43'1110.5
2015-Apr-09 15:33N 39°49' W 073°42'1211.5
2015-Apr-09 14:33N 39°38' W 073°43'1411.9
2015-Apr-09 13:20N 39°24' W 073°50'  

Dump ship's entire track history